Arickaree, Colorado
Current Conditions -  °F | °C
As of 6:55 AM on Thursday 30 Oct 2014 (Local Time) from KLIC Reporting Station
Clear Clear  
Wind Chill: 33°   Ceiling: Unl
Heat Index: 33°   Visibility: 10mi
Dew Point: 22°   Wind: 0mph
Humidity: 64%   Direction: NA
Pressure: 30.34"   Gusts: NA
Location:  39.6673°N, 103.47°W
Report Text: KLIC 301255Z AUTO 00000KT 10SM CLR 01/M06 A3034 RMK AO2 SLP270 T00061056
Loading
Personal Weather Stations






























Interactive Weather Map
Tropical Storm Tracking
New forecast layout! Learn more

10-Day Weather Forecast

Advertisements
Track Severe Weather on mobile